sensor_id;sensor_type;location;lat;lon;timestamp;temperature;humidity
43671;DHT22;29267;50.906;7.248;2023-07-13T00:01:16;15.70;98.40
43671;DHT22;29267;50.906;7.248;2023-07-13T00:03:42;15.70;98.70
43671;DHT22;29267;50.906;7.248;2023-07-13T00:06:08;15.60;99.20
43671;DHT22;29267;50.906;7.248;2023-07-13T00:08:34;15.60;99.90
43671;DHT22;29267;50.906;7.248;2023-07-13T00:11:04;15.50;99.90
43671;DHT22;29267;50.906;7.248;2023-07-13T00:13:30;15.50;99.90
43671;DHT22;29267;50.906;7.248;2023-07-13T00:15:57;15.40;99.90
43671;DHT22;29267;50.906;7.248;2023-07-13T00:18:23;15.40;99.90
43671;DHT22;29267;50.906;7.248;2023-07-13T00:20:49;15.40;99.90
43671;DHT22;29267;50.906;7.248;2023-07-13T00:23:15;15.30;99.90
43671;DHT22;29267;50.906;7.248;2023-07-13T00:25:42;15.30;99.90
43671;DHT22;29267;50.906;7.248;2023-07-13T00:28:08;15.20;99.90
43671;DHT22;29267;50.906;7.248;2023-07-13T00:40:40;15.00;99.90
43671;DHT22;29267;50.906;7.248;2023-07-13T00:43:20;15.00;99.90
43671;DHT22;29267;50.906;7.248;2023-07-13T00:48:16;14.80;99.90
43671;DHT22;29267;50.906;7.248;2023-07-13T00:50:43;14.80;99.90
43671;DHT22;29267;50.906;7.248;2023-07-13T00:53:10;14.80;99.90
43671;DHT22;29267;50.906;7.248;2023-07-13T00:55:37;14.70;99.90
43671;DHT22;29267;50.906;7.248;2023-07-13T00:58:04;14.70;99.90
43671;DHT22;29267;50.906;7.248;2023-07-13T01:00:34;14.80;99.90
43671;DHT22;29267;50.906;7.248;2023-07-13T01:03:01;14.80;99.90
43671;DHT22;29267;50.906;7.248;2023-07-13T01:05:30;14.70;99.90
43671;DHT22;29267;50.906;7.248;2023-07-13T01:07:57;14.70;99.90
43671;DHT22;29267;50.906;7.248;2023-07-13T01:10:23;14.70;99.90
43671;DHT22;29267;50.906;7.248;2023-07-13T01:12:49;14.70;99.90
43671;DHT22;29267;50.906;7.248;2023-07-13T01:18:03;14.60;99.90
43671;DHT22;29267;50.906;7.248;2023-07-13T01:20:29;14.70;99.90
43671;DHT22;29267;50.906;7.248;2023-07-13T01:22:55;14.60;99.90
43671;DHT22;29267;50.906;7.248;2023-07-13T01:25:21;14.60;99.90
43671;DHT22;29267;50.906;7.248;2023-07-13T01:27:46;14.60;99.90
43671;DHT22;29267;50.906;7.248;2023-07-13T01:30:12;14.50;99.90
43671;DHT22;29267;50.906;7.248;2023-07-13T01:32:38;14.50;99.90
43671;DHT22;29267;50.906;7.248;2023-07-13T01:35:07;14.50;99.90
43671;DHT22;29267;50.906;7.248;2023-07-13T01:37:33;14.50;99.90
43671;DHT22;29267;50.906;7.248;2023-07-13T01:40:02;14.40;99.90
43671;DHT22;29267;50.906;7.248;2023-07-13T01:42:29;14.40;99.90
43671;DHT22;29267;50.906;7.248;2023-07-13T01:44:54;14.40;99.90
43671;DHT22;29267;50.906;7.248;2023-07-13T01:47:20;14.30;99.90
43671;DHT22;29267;50.906;7.248;2023-07-13T01:49:45;14.20;99.90
43671;DHT22;29267;50.906;7.248;2023-07-13T01:52:12;14.20;99.90
43671;DHT22;29267;50.906;7.248;2023-07-13T01:54:38;14.20;99.90
43671;DHT22;29267;50.906;7.248;2023-07-13T01:57:04;14.10;99.90
43671;DHT22;29267;50.906;7.248;2023-07-13T01:59:29;14.00;99.90
43671;DHT22;29267;50.906;7.248;2023-07-13T02:01:55;14.00;99.90
43671;DHT22;29267;50.906;7.248;2023-07-13T02:04:20;13.90;99.90
43671;DHT22;29267;50.906;7.248;2023-07-13T02:06:46;13.90;99.90
43671;DHT22;29267;50.906;7.248;2023-07-13T02:09:11;13.90;99.90
43671;DHT22;29267;50.906;7.248;2023-07-13T02:11:37;13.80;99.90
43671;DHT22;29267;50.906;7.248;2023-07-13T02:14:03;13.80;99.90
43671;DHT22;29267;50.906;7.248;2023-07-13T02:16:30;13.80;99.90
43671;DHT22;29267;50.906;7.248;2023-07-13T02:18:56;13.80;99.90
43671;DHT22;29267;50.906;7.248;2023-07-13T02:21:22;13.70;99.90
43671;DHT22;29267;50.906;7.248;2023-07-13T02:23:49;13.70;99.90
43671;DHT22;29267;50.906;7.248;2023-07-13T02:26:14;13.70;99.90
43671;DHT22;29267;50.906;7.248;2023-07-13T02:28:40;13.70;99.90
43671;DHT22;29267;50.906;7.248;2023-07-13T02:31:08;13.70;99.90
43671;DHT22;29267;50.906;7.248;2023-07-13T02:33:33;13.60;99.90
43671;DHT22;29267;50.906;7.248;2023-07-13T02:35:59;13.60;99.90
43671;DHT22;29267;50.906;7.248;2023-07-13T02:38:24;13.60;99.90
43671;DHT22;29267;50.906;7.248;2023-07-13T02:40:50;13.70;99.90
43671;DHT22;29267;50.906;7.248;2023-07-13T02:43:15;13.70;99.90
43671;DHT22;29267;50.906;7.248;2023-07-13T02:45:45;13.70;99.90
43671;DHT22;29267;50.906;7.248;2023-07-13T02:48:10;13.80;99.90
43671;DHT22;29267;50.906;7.248;2023-07-13T02:50:36;13.80;99.90
43671;DHT22;29267;50.906;7.248;2023-07-13T02:53:02;13.90;99.90
43671;DHT22;29267;50.906;7.248;2023-07-13T02:55:27;14.00;99.90
43671;DHT22;29267;50.906;7.248;2023-07-13T02:57:53;14.00;99.90
43671;DHT22;29267;50.906;7.248;2023-07-13T03:00:19;14.10;99.90
43671;DHT22;29267;50.906;7.248;2023-07-13T03:02:45;14.10;99.90
43671;DHT22;29267;50.906;7.248;2023-07-13T03:05:11;14.10;99.90
43671;DHT22;29267;50.906;7.248;2023-07-13T03:07:38;14.10;99.90
43671;DHT22;29267;50.906;7.248;2023-07-13T03:10:04;14.10;99.90
43671;DHT22;29267;50.906;7.248;2023-07-13T03:12:31;14.00;99.90
43671;DHT22;29267;50.906;7.248;2023-07-13T03:14:57;14.10;99.90
43671;DHT22;29267;50.906;7.248;2023-07-13T03:17:23;14.00;99.90
43671;DHT22;29267;50.906;7.248;2023-07-13T03:19:49;14.00;99.90
43671;DHT22;29267;50.906;7.248;2023-07-13T03:22:19;14.00;99.90
43671;DHT22;29267;50.906;7.248;2023-07-13T03:24:45;13.90;99.90
43671;DHT22;29267;50.906;7.248;2023-07-13T03:27:11;13.90;99.90
43671;DHT22;29267;50.906;7.248;2023-07-13T03:29:36;13.80;99.90
43671;DHT22;29267;50.906;7.248;2023-07-13T03:32:02;13.80;99.90
43671;DHT22;29267;50.906;7.248;2023-07-13T03:34:30;13.80;99.90
43671;DHT22;29267;50.906;7.248;2023-07-13T03:36:55;13.80;99.90
43671;DHT22;29267;50.906;7.248;2023-07-13T03:39:21;13.80;99.90
43671;DHT22;29267;50.906;7.248;2023-07-13T03:41:47;13.80;99.90
43671;DHT22;29267;50.906;7.248;2023-07-13T03:44:12;13.90;99.90
43671;DHT22;29267;50.906;7.248;2023-07-13T03:46:38;13.90;99.90
43671;DHT22;29267;50.906;7.248;2023-07-13T03:49:05;13.90;99.90
43671;DHT22;29267;50.906;7.248;2023-07-13T03:51:31;13.90;99.90
43671;DHT22;29267;50.906;7.248;2023-07-13T03:53:57;13.90;99.90
43671;DHT22;29267;50.906;7.248;2023-07-13T03:56:23;14.00;99.90
43671;DHT22;29267;50.906;7.248;2023-07-13T03:58:50;14.00;99.90
43671;DHT22;29267;50.906;7.248;2023-07-13T04:01:18;14.10;99.90
43671;DHT22;29267;50.906;7.248;2023-07-13T04:03:44;14.10;99.90
43671;DHT22;29267;50.906;7.248;2023-07-13T04:06:20;14.10;99.90
43671;DHT22;29267;50.906;7.248;2023-07-13T04:08:51;14.20;99.90
43671;DHT22;29267;50.906;7.248;2023-07-13T04:11:18;14.20;99.90
43671;DHT22;29267;50.906;7.248;2023-07-13T04:13:44;14.30;99.90
43671;DHT22;29267;50.906;7.248;2023-07-13T04:16:10;14.30;99.90
43671;DHT22;29267;50.906;7.248;2023-07-13T04:18:36;14.30;99.90
43671;DHT22;29267;50.906;7.248;2023-07-13T04:21:01;14.40;99.90
43671;DHT22;29267;50.906;7.248;2023-07-13T04:23:27;14.40;99.90
43671;DHT22;29267;50.906;7.248;2023-07-13T04:25:53;14.50;99.90
43671;DHT22;29267;50.906;7.248;2023-07-13T04:28:21;14.60;99.90
43671;DHT22;29267;50.906;7.248;2023-07-13T04:30:46;14.60;99.90
43671;DHT22;29267;50.906;7.248;2023-07-13T04:33:12;14.70;99.90
43671;DHT22;29267;50.906;7.248;2023-07-13T04:35:38;14.80;99.90
43671;DHT22;29267;50.906;7.248;2023-07-13T04:38:04;15.00;99.90
43671;DHT22;29267;50.906;7.248;2023-07-13T04:40:29;15.30;99.90
43671;DHT22;29267;50.906;7.248;2023-07-13T04:42:56;16.30;99.90
43671;DHT22;29267;50.906;7.248;2023-07-13T04:45:22;17.40;99.90
43671;DHT22;29267;50.906;7.248;2023-07-13T04:47:49;18.60;99.90
43671;DHT22;29267;50.906;7.248;2023-07-13T04:50:15;19.30;97.50
43671;DHT22;29267;50.906;7.248;2023-07-13T04:52:45;20.10;96.10
43671;DHT22;29267;50.906;7.248;2023-07-13T04:55:11;21.10;95.60
43671;DHT22;29267;50.906;7.248;2023-07-13T04:57:36;22.00;92.80
43671;DHT22;29267;50.906;7.248;2023-07-13T05:00:03;22.80;90.70
43671;DHT22;29267;50.906;7.248;2023-07-13T05:02:32;23.00;89.90
43671;DHT22;29267;50.906;7.248;2023-07-13T05:04:59;23.30;87.70
43671;DHT22;29267;50.906;7.248;2023-07-13T05:07:25;23.60;89.80
43671;DHT22;29267;50.906;7.248;2023-07-13T05:09:51;23.60;85.80
43671;DHT22;29267;50.906;7.248;2023-07-13T05:12:16;23.90;84.60
43671;DHT22;29267;50.906;7.248;2023-07-13T05:14:42;23.70;85.30
43671;DHT22;29267;50.906;7.248;2023-07-13T05:17:07;24.10;84.70
43671;DHT22;29267;50.906;7.248;2023-07-13T05:19:33;24.40;83.90
43671;DHT22;29267;50.906;7.248;2023-07-13T05:21:59;24.90;81.60
43671;DHT22;29267;50.906;7.248;2023-07-13T05:24:24;25.50;80.20
43671;DHT22;29267;50.906;7.248;2023-07-13T05:26:50;25.40;79.50
43671;DHT22;29267;50.906;7.248;2023-07-13T05:29:16;25.50;78.80
43671;DHT22;29267;50.906;7.248;2023-07-13T05:31:41;25.70;79.60
43671;DHT22;29267;50.906;7.248;2023-07-13T05:34:07;25.30;79.00
43671;DHT22;29267;50.906;7.248;2023-07-13T05:36:32;25.20;80.00
43671;DHT22;29267;50.906;7.248;2023-07-13T05:38:58;25.80;78.20
43671;DHT22;29267;50.906;7.248;2023-07-13T05:41:23;25.40;79.20
43671;DHT22;29267;50.906;7.248;2023-07-13T05:43:49;25.60;78.60
43671;DHT22;29267;50.906;7.248;2023-07-13T05:46:15;25.80;78.40
43671;DHT22;29267;50.906;7.248;2023-07-13T05:48:40;26.00;77.20
43671;DHT22;29267;50.906;7.248;2023-07-13T05:51:06;25.80;77.20
43671;DHT22;29267;50.906;7.248;2023-07-13T05:53:31;25.70;78.20
43671;DHT22;29267;50.906;7.248;2023-07-13T05:55:57;25.90;78.20
43671;DHT22;29267;50.906;7.248;2023-07-13T05:58:22;26.30;77.30
43671;DHT22;29267;50.906;7.248;2023-07-13T06:00:48;26.90;77.80
43671;DHT22;29267;50.906;7.248;2023-07-13T06:03:15;26.70;75.20
43671;DHT22;29267;50.906;7.248;2023-07-13T06:05:41;26.60;76.80
43671;DHT22;29267;50.906;7.248;2023-07-13T06:08:07;26.40;76.30
43671;DHT22;29267;50.906;7.248;2023-07-13T06:10:34;26.30;76.60
43671;DHT22;29267;50.906;7.248;2023-07-13T06:12:59;26.70;77.20
43671;DHT22;29267;50.906;7.248;2023-07-13T06:15:25;27.20;75.10
43671;DHT22;29267;50.906;7.248;2023-07-13T06:17:51;27.40;74.40
43671;DHT22;29267;50.906;7.248;2023-07-13T06:20:16;26.30;76.70
43671;DHT22;29267;50.906;7.248;2023-07-13T06:22:42;25.70;77.10
43671;DHT22;29267;50.906;7.248;2023-07-13T06:25:08;26.10;77.60
43671;DHT22;29267;50.906;7.248;2023-07-13T06:27:34;25.80;77.40
43671;DHT22;29267;50.906;7.248;2023-07-13T06:29:59;25.70;78.30
43671;DHT22;29267;50.906;7.248;2023-07-13T06:32:26;26.20;79.80
43671;DHT22;29267;50.906;7.248;2023-07-13T06:34:51;25.70;77.80
43671;DHT22;29267;50.906;7.248;2023-07-13T06:37:17;24.70;79.20
43671;DHT22;29267;50.906;7.248;2023-07-13T06:39:43;25.20;80.50
43671;DHT22;29267;50.906;7.248;2023-07-13T06:42:09;25.20;78.70
43671;DHT22;29267;50.906;7.248;2023-07-13T06:44:35;25.60;78.50
43671;DHT22;29267;50.906;7.248;2023-07-13T06:47:00;25.90;77.70
43671;DHT22;29267;50.906;7.248;2023-07-13T06:49:26;26.00;76.80
43671;DHT22;29267;50.906;7.248;2023-07-13T06:51:52;26.90;77.90
43671;DHT22;29267;50.906;7.248;2023-07-13T06:54:17;27.50;76.50
43671;DHT22;29267;50.906;7.248;2023-07-13T06:56:43;28.00;74.30
43671;DHT22;29267;50.906;7.248;2023-07-13T06:59:08;28.80;73.30
43671;DHT22;29267;50.906;7.248;2023-07-13T07:01:34;29.40;70.60
43671;DHT22;29267;50.906;7.248;2023-07-13T07:03:59;28.20;70.70
43671;DHT22;29267;50.906;7.248;2023-07-13T07:06:25;27.40;73.70
43671;DHT22;29267;50.906;7.248;2023-07-13T07:08:52;27.90;74.60
43671;DHT22;29267;50.906;7.248;2023-07-13T07:11:27;28.50;72.20
43671;DHT22;29267;50.906;7.248;2023-07-13T07:13:53;28.90;71.30
43671;DHT22;29267;50.906;7.248;2023-07-13T07:16:20;28.20;71.60
43671;DHT22;29267;50.906;7.248;2023-07-13T07:18:46;27.60;73.00
43671;DHT22;29267;50.906;7.248;2023-07-13T07:21:11;27.20;76.20
43671;DHT22;29267;50.906;7.248;2023-07-13T07:23:37;27.10;75.20
43671;DHT22;29267;50.906;7.248;2023-07-13T07:26:03;27.80;74.30
43671;DHT22;29267;50.906;7.248;2023-07-13T07:28:28;28.60;73.40
43671;DHT22;29267;50.906;7.248;2023-07-13T07:30:56;28.90;72.90
43671;DHT22;29267;50.906;7.248;2023-07-13T07:33:23;28.70;71.50
43671;DHT22;29267;50.906;7.248;2023-07-13T07:35:49;28.30;72.50
43671;DHT22;29267;50.906;7.248;2023-07-13T07:38:15;27.80;74.30
43671;DHT22;29267;50.906;7.248;2023-07-13T07:40:41;27.40;74.10
43671;DHT22;29267;50.906;7.248;2023-07-13T07:43:08;26.40;75.90
43671;DHT22;29267;50.906;7.248;2023-07-13T07:45:34;26.40;77.60
43671;DHT22;29267;50.906;7.248;2023-07-13T07:47:59;26.30;76.70
43671;DHT22;29267;50.906;7.248;2023-07-13T07:50:26;26.70;77.10
43671;DHT22;29267;50.906;7.248;2023-07-13T07:52:52;27.00;75.10
43671;DHT22;29267;50.906;7.248;2023-07-13T07:55:17;27.80;74.80
43671;DHT22;29267;50.906;7.248;2023-07-13T07:57:43;28.30;73.40
43671;DHT22;29267;50.906;7.248;2023-07-13T08:00:09;27.80;74.00
43671;DHT22;29267;50.906;7.248;2023-07-13T08:02:35;28.20;75.20
43671;DHT22;29267;50.906;7.248;2023-07-13T08:05:00;29.70;72.40
43671;DHT22;29267;50.906;7.248;2023-07-13T08:07:26;29.90;71.50
43671;DHT22;29267;50.906;7.248;2023-07-13T08:09:53;30.00;69.90
43671;DHT22;29267;50.906;7.248;2023-07-13T08:12:19;29.20;71.10
43671;DHT22;29267;50.906;7.248;2023-07-13T08:14:44;28.80;72.40
43671;DHT22;29267;50.906;7.248;2023-07-13T08:17:10;29.20;72.20
43671;DHT22;29267;50.906;7.248;2023-07-13T08:19:35;28.90;73.80
43671;DHT22;29267;50.906;7.248;2023-07-13T08:22:01;29.00;71.40
43671;DHT22;29267;50.906;7.248;2023-07-13T08:24:26;29.00;72.30
43671;DHT22;29267;50.906;7.248;2023-07-13T08:26:52;28.80;72.80
43671;DHT22;29267;50.906;7.248;2023-07-13T08:29:18;28.20;72.80
43671;DHT22;29267;50.906;7.248;2023-07-13T08:31:43;28.20;73.30
43671;DHT22;29267;50.906;7.248;2023-07-13T08:34:10;29.30;73.50
43671;DHT22;29267;50.906;7.248;2023-07-13T08:36:36;30.20;71.30
43671;DHT22;29267;50.906;7.248;2023-07-13T08:39:01;30.00;71.00
43671;DHT22;29267;50.906;7.248;2023-07-13T08:41:27;30.60;69.80
43671;DHT22;29267;50.906;7.248;2023-07-13T08:43:59;30.30;69.90
43671;DHT22;29267;50.906;7.248;2023-07-13T08:46:34;30.40;69.60
43671;DHT22;29267;50.906;7.248;2023-07-13T08:49:04;30.10;71.00
43671;DHT22;29267;50.906;7.248;2023-07-13T08:51:47;30.30;69.30
43671;DHT22;29267;50.906;7.248;2023-07-13T08:54:36;31.30;68.90
43671;DHT22;29267;50.906;7.248;2023-07-13T08:57:13;31.50;67.50
43671;DHT22;29267;50.906;7.248;2023-07-13T08:59:39;30.80;66.10
43671;DHT22;29267;50.906;7.248;2023-07-13T09:04:59;28.80;70.60
43671;DHT22;29267;50.906;7.248;2023-07-13T09:07:45;28.50;72.20
43671;DHT22;29267;50.906;7.248;2023-07-13T09:10:31;28.60;70.20
43671;DHT22;29267;50.906;7.248;2023-07-13T09:15:59;30.20;68.60
43671;DHT22;29267;50.906;7.248;2023-07-13T09:21:36;29.20;68.50
43671;DHT22;29267;50.906;7.248;2023-07-13T09:24:38;28.40;70.50
43671;DHT22;29267;50.906;7.248;2023-07-13T09:27:15;28.60;70.10
43671;DHT22;29267;50.906;7.248;2023-07-13T09:29:47;28.70;70.80
43671;DHT22;29267;50.906;7.248;2023-07-13T09:32:18;29.70;70.70
43671;DHT22;29267;50.906;7.248;2023-07-13T09:34:53;29.50;68.10
43671;DHT22;29267;50.906;7.248;2023-07-13T09:37:23;29.00;70.30
43671;DHT22;29267;50.906;7.248;2023-07-13T09:39:53;28.80;70.60
43671;DHT22;29267;50.906;7.248;2023-07-13T09:42:22;28.50;69.50
43671;DHT22;29267;50.906;7.248;2023-07-13T09:44:52;28.30;70.80
43671;DHT22;29267;50.906;7.248;2023-07-13T09:47:26;28.60;71.90
43671;DHT22;29267;50.906;7.248;2023-07-13T09:50:00;28.90;71.60
43671;DHT22;29267;50.906;7.248;2023-07-13T09:52:27;29.40;69.90
43671;DHT22;29267;50.906;7.248;2023-07-13T09:54:54;29.40;68.70
43671;DHT22;29267;50.906;7.248;2023-07-13T09:57:26;29.70;69.40
43671;DHT22;29267;50.906;7.248;2023-07-13T09:59:53;29.60;68.80
43671;DHT22;29267;50.906;7.248;2023-07-13T10:02:33;29.40;69.30
43671;DHT22;29267;50.906;7.248;2023-07-13T10:05:11;30.00;69.50
43671;DHT22;29267;50.906;7.248;2023-07-13T10:07:43;29.90;69.10
43671;DHT22;29267;50.906;7.248;2023-07-13T10:10:20;30.40;67.70
43671;DHT22;29267;50.906;7.248;2023-07-13T10:12:47;30.10;67.70
43671;DHT22;29267;50.906;7.248;2023-07-13T10:15:19;29.40;70.60
43671;DHT22;29267;50.906;7.248;2023-07-13T10:17:45;29.00;69.00
43671;DHT22;29267;50.906;7.248;2023-07-13T10:20:12;28.70;69.80
43671;DHT22;29267;50.906;7.248;2023-07-13T10:23:01;28.60;70.60
43671;DHT22;29267;50.906;7.248;2023-07-13T10:25:33;28.20;71.30
43671;DHT22;29267;50.906;7.248;2023-07-13T10:28:25;28.10;71.20
43671;DHT22;29267;50.906;7.248;2023-07-13T10:30:53;28.10;71.80
43671;DHT22;29267;50.906;7.248;2023-07-13T10:33:21;28.10;72.30
43671;DHT22;29267;50.906;7.248;2023-07-13T10:35:49;27.90;71.00
43671;DHT22;29267;50.906;7.248;2023-07-13T10:38:23;28.10;72.20
43671;DHT22;29267;50.906;7.248;2023-07-13T10:40:56;28.10;71.80
43671;DHT22;29267;50.906;7.248;2023-07-13T10:43:31;27.80;71.20
43671;DHT22;29267;50.906;7.248;2023-07-13T10:46:00;27.40;72.40
43671;DHT22;29267;50.906;7.248;2023-07-13T10:48:27;27.70;72.20
43671;DHT22;29267;50.906;7.248;2023-07-13T10:50:55;27.30;73.10
43671;DHT22;29267;50.906;7.248;2023-07-13T10:53:30;27.00;74.20
43671;DHT22;29267;50.906;7.248;2023-07-13T10:55:58;27.10;74.60
43671;DHT22;29267;50.906;7.248;2023-07-13T10:58:36;26.30;73.40
43671;DHT22;29267;50.906;7.248;2023-07-13T11:04:17;25.90;74.30
43671;DHT22;29267;50.906;7.248;2023-07-13T11:06:37;26.10;74.90
43671;DHT22;29267;50.906;7.248;2023-07-13T11:11:56;26.70;73.60
43671;DHT22;29267;50.906;7.248;2023-07-13T11:16:54;26.40;72.90
43671;DHT22;29267;50.906;7.248;2023-07-13T11:24:59;26.50;72.00
43671;DHT22;29267;50.906;7.248;2023-07-13T11:30:23;26.10;73.50
43671;DHT22;29267;50.906;7.248;2023-07-13T11:33:22;25.80;73.50
43671;DHT22;29267;50.906;7.248;2023-07-13T11:38:23;25.80;74.70
43671;DHT22;29267;50.906;7.248;2023-07-13T11:40:54;25.80;73.30
43671;DHT22;29267;50.906;7.248;2023-07-13T11:43:20;25.90;73.20
43671;DHT22;29267;50.906;7.248;2023-07-13T11:45:49;25.80;73.70
43671;DHT22;29267;50.906;7.248;2023-07-13T11:48:34;25.70;75.70
43671;DHT22;29267;50.906;7.248;2023-07-13T11:51:04;25.70;75.00
43671;DHT22;29267;50.906;7.248;2023-07-13T11:53:43;25.80;73.20
43671;DHT22;29267;50.906;7.248;2023-07-13T11:56:10;26.20;73.90
43671;DHT22;29267;50.906;7.248;2023-07-13T11:58:36;26.20;73.30
43671;DHT22;29267;50.906;7.248;2023-07-13T12:01:03;26.10;72.70
43671;DHT22;29267;50.906;7.248;2023-07-13T12:03:33;26.20;73.10
43671;DHT22;29267;50.906;7.248;2023-07-13T12:06:29;26.10;73.10
43671;DHT22;29267;50.906;7.248;2023-07-13T12:09:00;26.40;73.50
43671;DHT22;29267;50.906;7.248;2023-07-13T12:11:27;26.50;73.80
43671;DHT22;29267;50.906;7.248;2023-07-13T12:13:53;26.70;73.50
43671;DHT22;29267;50.906;7.248;2023-07-13T12:16:32;26.60;72.70
43671;DHT22;29267;50.906;7.248;2023-07-13T12:19:03;26.60;73.10
43671;DHT22;29267;50.906;7.248;2023-07-13T12:21:38;26.80;72.60
43671;DHT22;29267;50.906;7.248;2023-07-13T12:24:04;26.40;73.00
43671;DHT22;29267;50.906;7.248;2023-07-13T12:26:31;26.40;73.30
43671;DHT22;29267;50.906;7.248;2023-07-13T12:29:01;26.40;73.80
43671;DHT22;29267;50.906;7.248;2023-07-13T12:31:37;26.10;72.40
43671;DHT22;29267;50.906;7.248;2023-07-13T12:34:19;26.20;74.10
43671;DHT22;29267;50.906;7.248;2023-07-13T12:40:03;25.90;74.20
43671;DHT22;29267;50.906;7.248;2023-07-13T12:42:26;26.30;74.40
43671;DHT22;29267;50.906;7.248;2023-07-13T12:45:16;26.50;74.70
43671;DHT22;29267;50.906;7.248;2023-07-13T12:47:47;26.40;73.00
43671;DHT22;29267;50.906;7.248;2023-07-13T12:50:18;26.20;72.60
43671;DHT22;29267;50.906;7.248;2023-07-13T12:52:51;25.70;73.80
43671;DHT22;29267;50.906;7.248;2023-07-13T12:55:19;25.40;74.20
43671;DHT22;29267;50.906;7.248;2023-07-13T12:57:53;25.50;75.00
43671;DHT22;29267;50.906;7.248;2023-07-13T13:00:29;25.30;74.70
43671;DHT22;29267;50.906;7.248;2023-07-13T13:03:00;25.50;76.10
43671;DHT22;29267;50.906;7.248;2023-07-13T13:05:29;25.70;75.00
43671;DHT22;29267;50.906;7.248;2023-07-13T13:07:55;25.80;72.90
43671;DHT22;29267;50.906;7.248;2023-07-13T13:10:21;25.80;74.40
43671;DHT22;29267;50.906;7.248;2023-07-13T13:12:47;25.90;72.30
43671;DHT22;29267;50.906;7.248;2023-07-13T13:15:13;25.60;71.80
43671;DHT22;29267;50.906;7.248;2023-07-13T13:17:39;25.70;72.70
43671;DHT22;29267;50.906;7.248;2023-07-13T13:20:18;25.80;72.20
43671;DHT22;29267;50.906;7.248;2023-07-13T13:22:44;25.90;72.30
43671;DHT22;29267;50.906;7.248;2023-07-13T13:25:11;25.70;72.60
43671;DHT22;29267;50.906;7.248;2023-07-13T13:27:37;25.70;72.30
43671;DHT22;29267;50.906;7.248;2023-07-13T13:30:03;25.80;72.40
43671;DHT22;29267;50.906;7.248;2023-07-13T13:32:30;25.40;71.20
43671;DHT22;29267;50.906;7.248;2023-07-13T13:34:56;25.10;72.50
43671;DHT22;29267;50.906;7.248;2023-07-13T13:37:23;25.30;72.60
43671;DHT22;29267;50.906;7.248;2023-07-13T13:39:50;25.40;72.10
43671;DHT22;29267;50.906;7.248;2023-07-13T13:42:17;25.80;72.80
43671;DHT22;29267;50.906;7.248;2023-07-13T13:44:42;25.70;72.40
43671;DHT22;29267;50.906;7.248;2023-07-13T13:47:28;25.80;71.00
43671;DHT22;29267;50.906;7.248;2023-07-13T13:49:54;25.90;71.20
43671;DHT22;29267;50.906;7.248;2023-07-13T13:52:20;25.50;70.70
43671;DHT22;29267;50.906;7.248;2023-07-13T13:54:46;25.40;71.40
43671;DHT22;29267;50.906;7.248;2023-07-13T13:57:11;25.20;72.10
43671;DHT22;29267;50.906;7.248;2023-07-13T13:59:39;25.00;71.20
43671;DHT22;29267;50.906;7.248;2023-07-13T14:02:24;25.00;72.40
43671;DHT22;29267;50.906;7.248;2023-07-13T14:04:54;25.00;73.60
43671;DHT22;29267;50.906;7.248;2023-07-13T14:07:20;25.00;71.80
43671;DHT22;29267;50.906;7.248;2023-07-13T14:09:45;24.80;72.90
43671;DHT22;29267;50.906;7.248;2023-07-13T14:12:11;24.50;72.80
43671;DHT22;29267;50.906;7.248;2023-07-13T14:14:39;24.50;73.00
43671;DHT22;29267;50.906;7.248;2023-07-13T14:17:17;24.50;74.60
43671;DHT22;29267;50.906;7.248;2023-07-13T14:19:47;24.80;74.20
43671;DHT22;29267;50.906;7.248;2023-07-13T14:22:16;24.80;73.40
43671;DHT22;29267;50.906;7.248;2023-07-13T14:24:42;24.70;73.80
43671;DHT22;29267;50.906;7.248;2023-07-13T14:27:10;24.60;74.60
43671;DHT22;29267;50.906;7.248;2023-07-13T14:29:36;24.70;74.40
43671;DHT22;29267;50.906;7.248;2023-07-13T14:32:02;24.60;73.50
43671;DHT22;29267;50.906;7.248;2023-07-13T14:34:27;24.70;73.80
43671;DHT22;29267;50.906;7.248;2023-07-13T14:36:53;24.60;74.50
43671;DHT22;29267;50.906;7.248;2023-07-13T14:39:23;24.80;73.80
43671;DHT22;29267;50.906;7.248;2023-07-13T14:41:54;24.80;72.30
43671;DHT22;29267;50.906;7.248;2023-07-13T14:44:23;24.70;73.30
43671;DHT22;29267;50.906;7.248;2023-07-13T14:46:50;24.70;73.10
43671;DHT22;29267;50.906;7.248;2023-07-13T14:49:29;25.00;71.70
43671;DHT22;29267;50.906;7.248;2023-07-13T14:52:00;25.00;72.00
43671;DHT22;29267;50.906;7.248;2023-07-13T14:54:26;25.10;71.70
43671;DHT22;29267;50.906;7.248;2023-07-13T14:56:51;25.30;72.90
43671;DHT22;29267;50.906;7.248;2023-07-13T14:59:17;25.60;72.60
43671;DHT22;29267;50.906;7.248;2023-07-13T15:01:44;25.70;71.40
43671;DHT22;29267;50.906;7.248;2023-07-13T15:04:11;25.90;70.90
43671;DHT22;29267;50.906;7.248;2023-07-13T15:09:21;25.80;69.80
43671;DHT22;29267;50.906;7.248;2023-07-13T15:11:46;25.70;69.90
43671;DHT22;29267;50.906;7.248;2023-07-13T15:14:12;25.50;70.50
43671;DHT22;29267;50.906;7.248;2023-07-13T15:16:37;25.40;70.70
43671;DHT22;29267;50.906;7.248;2023-07-13T15:19:03;25.10;70.90
43671;DHT22;29267;50.906;7.248;2023-07-13T15:21:29;25.10;72.70
43671;DHT22;29267;50.906;7.248;2023-07-13T15:24:00;25.00;71.20
43671;DHT22;29267;50.906;7.248;2023-07-13T15:26:26;25.00;71.70
43671;DHT22;29267;50.906;7.248;2023-07-13T15:28:51;24.90;71.40
43671;DHT22;29267;50.906;7.248;2023-07-13T15:31:22;24.60;72.00
43671;DHT22;29267;50.906;7.248;2023-07-13T15:33:50;24.50;72.30
43671;DHT22;29267;50.906;7.248;2023-07-13T15:36:17;24.60;73.20
43671;DHT22;29267;50.906;7.248;2023-07-13T15:38:43;24.60;72.90
43671;DHT22;29267;50.906;7.248;2023-07-13T15:43:41;24.80;72.80
43671;DHT22;29267;50.906;7.248;2023-07-13T15:46:07;25.10;72.50
43671;DHT22;29267;50.906;7.248;2023-07-13T15:48:32;25.10;72.00
43671;DHT22;29267;50.906;7.248;2023-07-13T15:51:01;25.10;72.20
43671;DHT22;29267;50.906;7.248;2023-07-13T15:53:33;25.10;71.80
43671;DHT22;29267;50.906;7.248;2023-07-13T15:55:59;25.00;72.10
43671;DHT22;29267;50.906;7.248;2023-07-13T15:58:27;24.90;72.80
43671;DHT22;29267;50.906;7.248;2023-07-13T16:00:54;24.80;73.40
43671;DHT22;29267;50.906;7.248;2023-07-13T16:03:20;24.80;72.50
43671;DHT22;29267;50.906;7.248;2023-07-13T16:05:47;24.50;73.20
43671;DHT22;29267;50.906;7.248;2023-07-13T16:08:31;24.30;74.50
43671;DHT22;29267;50.906;7.248;2023-07-13T16:10:58;24.30;74.40
43671;DHT22;29267;50.906;7.248;2023-07-13T16:13:25;24.30;73.80
43671;DHT22;29267;50.906;7.248;2023-07-13T16:15:51;24.40;73.90
43671;DHT22;29267;50.906;7.248;2023-07-13T16:18:17;24.40;74.00
43671;DHT22;29267;50.906;7.248;2023-07-13T16:20:45;24.40;73.50
43671;DHT22;29267;50.906;7.248;2023-07-13T16:23:12;24.40;73.80
43671;DHT22;29267;50.906;7.248;2023-07-13T16:25:40;24.50;74.20
43671;DHT22;29267;50.906;7.248;2023-07-13T16:28:06;24.50;74.70